Hitachimaru — JD2063 — position and weather

sailwx.info

Track history (hours):
 
Tides and Currents Weather Stations Pressure Air Temp Water Temp Dewpoint Dewpoint Depression Visibility Wind Speed Wind Dir Waves Ship Positions

Hitachimaru

Last reported at 2014-Aug-27 13:32 UTC. Time now 2014-Aug-27 21:13 UTC.
Position N 34°35' E 135°27'.

Length 83 m; draft 4.5 m.

Type: Cargo ship. MMSI: 431301756.

Date/timePositionNaut miles runAvg speedWind from/ knotsBaromVisibWave heightAir tempDewpointWater temp
2014-Aug-27 13:32N 34°35' E 135°27'1 0.3
2014-Aug-27 11:29N 34°35' E 135°28'0 0.0
2014-Aug-27 10:29N 34°35' E 135°28'0 0.0
2014-Aug-27 08:23N 34°35' E 135°28'0 0.0
2014-Aug-27 07:05N 34°35' E 135°28'0 0.0
2014-Aug-27 06:29N 34°35' E 135°28'0 0.0
2014-Aug-27 05:05N 34°35' E 135°28'0 0.0
2014-Aug-27 01:08N 34°35' E 135°28'0 0.0
2014-Aug-27 00:32N 34°35' E 135°28'0 0.0
2014-Aug-26 23:32N 34°35' E 135°28'4 4.2
2014-Aug-26 22:34N 34°36' E 135°23'0 0.0
2014-Aug-26 21:29N 34°36' E 135°23'0 0.0
2014-Aug-26 20:17N 34°36' E 135°23'0 0.0
2014-Aug-26 19:29N 34°36' E 135°23'0 0.0
2014-Aug-26 18:17N 34°36' E 135°23'0 0.0
2014-Aug-26 17:11N 34°36' E 135°23'5 7.7
2014-Aug-26 16:33N 34°35' E 135°17'1212.5
2014-Aug-26 15:34N 34°36' E 135°02'1712.9
2014-Aug-26 14:14N 34°40' E 134°42'18 0.8
2014-Aug-25 14:33N 34°36' E 135°03'1212.0
2014-Aug-25 13:33N 34°36' E 135°18'8 2.4
2014-Aug-25 10:13N 34°35' E 135°28'3 4.9
2014-Aug-25 09:34N 34°36' E 135°24'4 3.0
2014-Aug-25 08:21N 34°36' E 135°19'0 0.1
2014-Aug-25 07:33N 34°36' E 135°19'8 8.1
2014-Aug-25 06:33N 34°30' E 135°13'1111.1
2014-Aug-25 05:31N 34°22' E 135°03'9 9.3
2014-Aug-25 04:33N 34°13' E 134°60'225 9.4
2014-Aug-24 04:27N 34°57' E 139°28'1011.6
2014-Aug-24 03:33N 35°04' E 139°38'1211.7
2014-Aug-24 02:34N 35°13' E 139°46'1111.1
2014-Aug-24 01:34N 35°24' E 139°43'4 0.2
2014-Aug-23 03:31N 35°23' E 139°38'0 0.0
2014-Aug-23 02:31N 35°23' E 139°38'0 0.0
2014-Aug-23 01:31N 35°23' E 139°38'0 0.0
2014-Aug-23 00:31N 35°23' E 139°38'0 0.0
2014-Aug-22 23:31N 35°23' E 139°38'0 0.2
2014-Aug-22 22:33N 35°23' E 139°38'1 0.9
2014-Aug-22 21:32N 35°23' E 139°40'0 0.0
2014-Aug-22 20:32N 35°23' E 139°40'0 0.1
2014-Aug-22 19:32N 35°23' E 139°40'0 0.0
2014-Aug-22 18:32N 35°23' E 139°40'0 0.0
2014-Aug-22 17:32N 35°23' E 139°40'8 8.3
2014-Aug-22 16:34N 35°28' E 139°48'1111.4
2014-Aug-22 15:33N 35°36' E 139°57'4 3.5
2014-Aug-22 14:23N 35°40' E 139°57'2 2.3
2014-Aug-22 13:33N 35°39' E 139°58'2 1.5
2014-Aug-22 12:30N 35°37' E 139°58'0 0.0
2014-Aug-22 11:30N 35°37' E 139°58'0 0.0
2014-Aug-22 10:30N 35°37' E 139°58'0 0.0
2014-Aug-22 09:30N 35°37' E 139°58'0 0.0
2014-Aug-22 08:30N 35°37' E 139°58'0 0.0
2014-Aug-22 07:30N 35°37' E 139°58'0 0.0
2014-Aug-22 06:24N 35°37' E 139°58'0 0.0
2014-Aug-22 05:29N 35°37' E 139°58'0 0.0
2014-Aug-22 04:29N 35°37' E 139°58'0 0.0
2014-Aug-22 03:29N 35°37' E 139°58'5 5.2
2014-Aug-22 02:33N 35°33' E 139°55'1212.3
2014-Aug-22 01:33N 35°23' E 139°46'1111.0
2014-Aug-22 00:33N 35°12' E 139°47'1111.2
2014-Aug-21 23:33N 35°03' E 139°39'1312.6
2014-Aug-21 22:33N 34°54' E 139°28'22610.2
2014-Aug-21 00:21N 34°04' E 135°00'911.7
2014-Aug-20 23:32N 34°13' E 134°59'1511.1
2014-Aug-20 22:09N 34°27' E 135°07'711.7
2014-Aug-20 21:33N 34°31' E 135°14'1110.6
2014-Aug-20 20:33N 34°36' E 135°25'1 0.1
2014-Aug-20 07:33N 34°35' E 135°27'1 0.2
2014-Aug-20 03:24N 34°35' E 135°28'0 0.0
2014-Aug-20 00:12N 34°35' E 135°28'0 0.0
2014-Aug-19 23:12N 34°35' E 135°28'0 0.1
2014-Aug-19 22:30N 34°35' E 135°28'0 0.1
2014-Aug-19 21:33N 34°35' E 135°28'2 0.2
2014-Aug-19 11:32N 34°34' E 135°27'9 9.0
2014-Aug-19 10:33N 34°35' E 135°16'1212.3
2014-Aug-19 09:33N 34°37' E 135°01'1711.8
2014-Aug-19 08:07N 34°40' E 134°41'  
Track history (hours):
 
Tides and Currents Weather Stations Pressure Air Temp Water Temp Dewpoint Dewpoint Depression Visibility Wind Speed Wind Dir Waves Ship Positions

Hitachimaru

Last reported at 2014-Aug-27 13:32 UTC. Time now 2014-Aug-27 21:13 UTC.
Position N 34°35' E 135°27'.

Length 83 m; draft 4.5 m.

Type: Cargo ship. MMSI: 431301756.

Date/timePositionNaut miles runAvg speedWind from/ knotsBaromVisibWave heightAir tempDewpointWater temp
2014-Aug-27 13:32N 34°35' E 135°27'1 0.3
2014-Aug-27 11:29N 34°35' E 135°28'0 0.0
2014-Aug-27 10:29N 34°35' E 135°28'0 0.0
2014-Aug-27 08:23N 34°35' E 135°28'0 0.0
2014-Aug-27 07:05N 34°35' E 135°28'0 0.0
2014-Aug-27 06:29N 34°35' E 135°28'0 0.0
2014-Aug-27 05:05N 34°35' E 135°28'0 0.0
2014-Aug-27 01:08N 34°35' E 135°28'0 0.0
2014-Aug-27 00:32N 34°35' E 135°28'0 0.0
2014-Aug-26 23:32N 34°35' E 135°28'4 4.2
2014-Aug-26 22:34N 34°36' E 135°23'0 0.0
2014-Aug-26 21:29N 34°36' E 135°23'0 0.0
2014-Aug-26 20:17N 34°36' E 135°23'0 0.0
2014-Aug-26 19:29N 34°36' E 135°23'0 0.0
2014-Aug-26 18:17N 34°36' E 135°23'0 0.0
2014-Aug-26 17:11N 34°36' E 135°23'5 7.7
2014-Aug-26 16:33N 34°35' E 135°17'1212.5
2014-Aug-26 15:34N 34°36' E 135°02'1712.9
2014-Aug-26 14:14N 34°40' E 134°42'18 0.8
2014-Aug-25 14:33N 34°36' E 135°03'1212.0
2014-Aug-25 13:33N 34°36' E 135°18'8 2.4
2014-Aug-25 10:13N 34°35' E 135°28'3 4.9
2014-Aug-25 09:34N 34°36' E 135°24'4 3.0
2014-Aug-25 08:21N 34°36' E 135°19'0 0.1
2014-Aug-25 07:33N 34°36' E 135°19'8 8.1
2014-Aug-25 06:33N 34°30' E 135°13'1111.1
2014-Aug-25 05:31N 34°22' E 135°03'9 9.3
2014-Aug-25 04:33N 34°13' E 134°60'225 9.4
2014-Aug-24 04:27N 34°57' E 139°28'1011.6
2014-Aug-24 03:33N 35°04' E 139°38'1211.7
2014-Aug-24 02:34N 35°13' E 139°46'1111.1
2014-Aug-24 01:34N 35°24' E 139°43'4 0.2
2014-Aug-23 03:31N 35°23' E 139°38'0 0.0
2014-Aug-23 02:31N 35°23' E 139°38'0 0.0
2014-Aug-23 01:31N 35°23' E 139°38'0 0.0
2014-Aug-23 00:31N 35°23' E 139°38'0 0.0
2014-Aug-22 23:31N 35°23' E 139°38'0 0.2
2014-Aug-22 22:33N 35°23' E 139°38'1 0.9
2014-Aug-22 21:32N 35°23' E 139°40'0 0.0
2014-Aug-22 20:32N 35°23' E 139°40'0 0.1
2014-Aug-22 19:32N 35°23' E 139°40'0 0.0
2014-Aug-22 18:32N 35°23' E 139°40'0 0.0
2014-Aug-22 17:32N 35°23' E 139°40'8 8.3
2014-Aug-22 16:34N 35°28' E 139°48'1111.4
2014-Aug-22 15:33N 35°36' E 139°57'4 3.5
2014-Aug-22 14:23N 35°40' E 139°57'2 2.3
2014-Aug-22 13:33N 35°39' E 139°58'2 1.5
2014-Aug-22 12:30N 35°37' E 139°58'0 0.0
2014-Aug-22 11:30N 35°37' E 139°58'0 0.0
2014-Aug-22 10:30N 35°37' E 139°58'0 0.0
2014-Aug-22 09:30N 35°37' E 139°58'0 0.0
2014-Aug-22 08:30N 35°37' E 139°58'0 0.0
2014-Aug-22 07:30N 35°37' E 139°58'0 0.0
2014-Aug-22 06:24N 35°37' E 139°58'0 0.0
2014-Aug-22 05:29N 35°37' E 139°58'0 0.0
2014-Aug-22 04:29N 35°37' E 139°58'0 0.0
2014-Aug-22 03:29N 35°37' E 139°58'5 5.2
2014-Aug-22 02:33N 35°33' E 139°55'1212.3
2014-Aug-22 01:33N 35°23' E 139°46'1111.0
2014-Aug-22 00:33N 35°12' E 139°47'1111.2
2014-Aug-21 23:33N 35°03' E 139°39'1312.6
2014-Aug-21 22:33N 34°54' E 139°28'22610.2
2014-Aug-21 00:21N 34°04' E 135°00'911.7
2014-Aug-20 23:32N 34°13' E 134°59'1511.1
2014-Aug-20 22:09N 34°27' E 135°07'711.7
2014-Aug-20 21:33N 34°31' E 135°14'1110.6
2014-Aug-20 20:33N 34°36' E 135°25'1 0.1
2014-Aug-20 07:33N 34°35' E 135°27'1 0.2
2014-Aug-20 03:24N 34°35' E 135°28'0 0.0
2014-Aug-20 00:12N 34°35' E 135°28'0 0.0
2014-Aug-19 23:12N 34°35' E 135°28'0 0.1
2014-Aug-19 22:30N 34°35' E 135°28'0 0.1
2014-Aug-19 21:33N 34°35' E 135°28'2 0.2
2014-Aug-19 11:32N 34°34' E 135°27'9 9.0
2014-Aug-19 10:33N 34°35' E 135°16'1212.3
2014-Aug-19 09:33N 34°37' E 135°01'1711.8
2014-Aug-19 08:07N 34°40' E 134°41'  

Dump ship's entire track history